Time;durP1;ratioP1;P1;durP2;ratioP2;P2;SDS_P1;SDS_P2;PMS_P1;PMS_P2;Temp;Humidity;BMP_temperature;BMP_pressure;BME280_temperature;BME280_humidity;BME280_pressure;Samples;Min_cycle;Max_cycle;Signal;HPM_P1;HPM_P2
2021/09/20 00:02:08;;;;;;;;;11.75;11.25;;;;;;;;5041004;28;8808;-81
2021/09/20 00:04:35;;;;;;;;;13.00;11.75;;;;;;;;5043225;28;8948;-88
2021/09/20 00:07:04;;;;;;;;;12.00;12.00;;;;;;;;5044189;28;8879;-88
2021/09/20 00:09:31;;;;;;;;;14.50;10.75;;;;;;;;5039881;28;8856;-88
2021/09/20 00:11:59;;;;;;;;;10.50;10.50;;;;;;;;5045532;28;8840;-87
2021/09/20 00:14:26;;;;;;;;;14.75;11.50;;;;;;;;5044645;28;8882;-86
2021/09/20 00:16:54;;;;;;;;;10.75;10.75;;;;;;;;5043940;28;8860;-89
2021/09/20 00:19:21;;;;;;;;;9.00;9.00;;;;;;;;5044249;28;8831;-80
2021/09/20 00:21:48;;;;;;;;;8.50;8.50;;;;;;;;5034530;28;9601;-89
2021/09/20 00:24:17;;;;;;;;;8.75;8.00;;;;;;;;5035675;28;8864;-87
2021/09/20 00:26:45;;;;;;;;;10.00;9.00;;;;;;;;5043912;28;9014;-90
2021/09/20 00:29:12;;;;;;;;;8.00;8.00;;;;;;;;5041500;28;9000;-85
2021/09/20 00:31:39;;;;;;;;;8.25;8.25;;;;;;;;5043357;28;8804;-79
2021/09/20 00:34:06;;;;;;;;;5.00;5.00;;;;;;;;5042554;28;8864;-90
2021/09/20 00:36:34;;;;;;;;;6.00;6.00;;;;;;;;5044159;28;8866;-89
2021/09/20 00:39:01;;;;;;;;;6.00;6.00;;;;;;;;5043362;28;8840;-85
2021/09/20 00:41:29;;;;;;;;;4.50;4.50;;;;;;;;5044734;28;8893;-87
2021/09/20 00:43:57;;;;;;;;;5.00;5.00;;;;;;;;5040836;28;8859;-88
2021/09/20 00:46:24;;;;;;;;;7.00;6.00;;;;;;;;5044085;28;8856;-84
2021/09/20 00:48:51;;;;;;;;;4.00;4.00;;;;;;;;5043856;28;8854;-90
2021/09/20 00:51:18;;;;;;;;;5.50;5.25;;;;;;;;5041627;28;8992;-90
2021/09/20 00:53:46;;;;;;;;;2.50;2.50;;;;;;;;5036877;28;9409;-84
2021/09/20 00:56:13;;;;;;;;;3.00;3.00;;;;;;;;5037556;28;8883;-86
2021/09/20 00:58:42;;;;;;;;;3.25;2.00;;;;;;;;5043040;28;8856;-83
2021/09/20 01:01:09;;;;;;;;;1.25;1.25;;;;;;;;5041151;28;8800;-87
2021/09/20 01:03:36;;;;;;;;;2.75;2.00;;;;;;;;5045305;28;8847;-87
2021/09/20 01:06:03;;;;;;;;;3.75;2.00;;;;;;;;5043477;28;8991;-88
2021/09/20 01:08:31;;;;;;;;;2.00;2.00;;;;;;;;5044669;28;8868;-86
2021/09/20 01:10:58;;;;;;;;;2.00;2.00;;;;;;;;5043204;28;8868;-87
2021/09/20 01:13:25;;;;;;;;;2.00;2.00;;;;;;;;5047861;28;8879;-82
2021/09/20 01:15:55;;;;;;;;;2.00;2.00;;;;;;;;5047945;28;8874;-86
2021/09/20 01:18:22;;;;;;;;;3.00;3.00;;;;;;;;5046011;28;8867;-86
2021/09/20 01:20:49;;;;;;;;;1.00;1.00;;;;;;;;5048029;28;8872;-82
2021/09/20 01:23:19;;;;;;;;;1.00;1.00;;;;;;;;5037465;28;8867;-81
2021/09/20 01:25:46;;;;;;;;;3.50;1.00;;;;;;;;5045731;28;8995;-80
2021/09/20 01:28:13;;;;;;;;;2.00;2.00;;;;;;;;5046795;28;8840;-85
2021/09/20 01:30:41;;;;;;;;;2.25;2.25;;;;;;;;5040728;28;8818;-87
2021/09/20 01:33:08;;;;;;;;;1.00;1.00;;;;;;;;5030065;28;8987;-86
2021/09/20 01:35:35;;;;;;;;;2.00;2.00;;;;;;;;5045783;28;8851;-86
2021/09/20 01:38:03;;;;;;;;;1.25;1.25;;;;;;;;5046393;28;8844;-84
2021/09/20 01:40:32;;;;;;;;;1.00;1.00;;;;;;;;5045134;28;8856;-87
2021/09/20 01:42:59;;;;;;;;;3.00;2.00;;;;;;;;5046806;28;8867;-82
2021/09/20 01:45:27;;;;;;;;;1.00;1.00;;;;;;;;5047017;28;8868;-85
2021/09/20 01:47:55;;;;;;;;;1.00;1.00;;;;;;;;5047153;28;8871;-87
2021/09/20 01:50:22;;;;;;;;;1.00;1.00;;;;;;;;5046363;28;8852;-87
2021/09/20 01:52:50;;;;;;;;;1.25;1.25;;;;;;;;5045030;28;8848;-86
2021/09/20 01:55:17;;;;;;;;;3.50;1.75;;;;;;;;5047277;28;8856;-84
2021/09/20 01:57:46;;;;;;;;;2.75;2.00;;;;;;;;5045728;28;8874;-89
2021/09/20 02:00:15;;;;;;;;;1.00;1.00;;;;;;;;5046323;28;8978;-85
2021/09/20 02:02:42;;;;;;;;;1.25;1.25;;;;;;;;5044828;28;8879;-86
2021/09/20 02:05:12;;;;;;;;;4.00;2.75;;;;;;;;5047440;28;8899;-82
2021/09/20 02:07:41;;;;;;;;;1.00;1.00;;;;;;;;5044312;28;8860;-88
2021/09/20 02:10:10;;;;;;;;;1.00;1.00;;;;;;;;5041316;28;8859;-88
2021/09/20 02:12:37;;;;;;;;;1.00;1.00;;;;;;;;5047981;28;9602;-83
2021/09/20 02:15:08;;;;;;;;;1.00;1.00;;;;;;;;5046103;28;8864;-86
2021/09/20 02:17:35;;;;;;;;;2.75;2.00;;;;;;;;5041350;28;8895;-83
2021/09/20 02:20:03;;;;;;;;;1.75;1.75;;;;;;;;5046678;28;8905;-84
2021/09/20 02:22:30;;;;;;;;;1.75;1.75;;;;;;;;5047077;28;8860;-88
2021/09/20 02:24:58;;;;;;;;;0.50;0.50;;;;;;;;5043012;28;8859;-88
2021/09/20 02:27:25;;;;;;;;;2.25;2.25;;;;;;;;5044642;28;8864;-86
2021/09/20 02:29:52;;;;;;;;;1.00;1.00;;;;;;;;5046287;28;8935;-84
2021/09/20 02:32:21;;;;;;;;;1.00;1.00;;;;;;;;5043591;28;8818;-85
2021/09/20 02:34:48;;;;;;;;;1.00;1.00;;;;;;;;5045621;28;8855;-86
2021/09/20 02:37:15;;;;;;;;;2.75;2.00;;;;;;;;5045418;28;8868;-86
2021/09/20 02:39:42;;;;;;;;;1.00;1.00;;;;;;;;5044766;28;8847;-87
2021/09/20 02:42:10;;;;;;;;;2.00;0.25;;;;;;;;5044652;28;8852;-87
2021/09/20 02:44:37;;;;;;;;;1.00;1.00;;;;;;;;5045366;28;8860;-84
2021/09/20 02:47:04;;;;;;;;;1.75;1.00;;;;;;;;5044750;28;8921;-84
2021/09/20 02:49:33;;;;;;;;;1.00;1.00;;;;;;;;5040416;28;8864;-84
2021/09/20 02:52:00;;;;;;;;;1.00;1.00;;;;;;;;5046920;28;9042;-80
2021/09/20 02:54:27;;;;;;;;;2.00;2.00;;;;;;;;5043285;28;8893;-86
2021/09/20 02:56:54;;;;;;;;;1.33;1.33;;;;;;;;5041057;28;8875;-87
2021/09/20 02:59:22;;;;;;;;;3.00;2.00;;;;;;;;5041949;28;8850;-86
2021/09/20 03:01:49;;;;;;;;;5.00;2.00;;;;;;;;5044189;28;8832;-85
2021/09/20 03:04:16;;;;;;;;;1.00;1.00;;;;;;;;5045528;28;8852;-86
2021/09/20 03:06:45;;;;;;;;;2.25;1.00;;;;;;;;5042562;28;8859;-81
2021/09/20 03:09:12;;;;;;;;;1.00;1.00;;;;;;;;5042914;28;8864;-80
2021/09/20 03:11:39;;;;;;;;;4.00;1.00;;;;;;;;5044147;28;8890;-88
2021/09/20 03:14:07;;;;;;;;;3.00;1.00;;;;;;;;5028961;28;8884;-82
2021/09/20 03:16:34;;;;;;;;;3.25;1.00;;;;;;;;5044456;28;8886;-89
2021/09/20 03:19:01;;;;;;;;;1.00;1.00;;;;;;;;5045310;28;8931;-86
2021/09/20 03:21:29;;;;;;;;;1.25;1.25;;;;;;;;5046011;28;8862;-86
2021/09/20 03:23:58;;;;;;;;;1.00;1.00;;;;;;;;5045314;28;8909;-86
2021/09/20 03:26:25;;;;;;;;;1.25;1.25;;;;;;;;5045299;28;8851;-83
2021/09/20 03:28:52;;;;;;;;;2.00;1.00;;;;;;;;5042985;28;8885;-87
2021/09/20 03:31:20;;;;;;;;;1.25;1.25;;;;;;;;5027566;28;9070;-85
2021/09/20 03:33:47;;;;;;;;;2.00;1.00;;;;;;;;5044152;28;8887;-83
2021/09/20 03:36:14;;;;;;;;;3.50;2.00;;;;;;;;5044109;28;8874;-86
2021/09/20 03:38:42;;;;;;;;;1.00;1.00;;;;;;;;5044582;28;8917;-87
2021/09/20 03:41:11;;;;;;;;;1.00;1.00;;;;;;;;5042055;28;9019;-86
2021/09/20 03:43:39;;;;;;;;;1.50;1.50;;;;;;;;5043290;28;8878;-83
2021/09/20 03:46:06;;;;;;;;;2.00;2.00;;;;;;;;5044238;28;8851;-86
2021/09/20 03:48:33;;;;;;;;;2.00;2.00;;;;;;;;5045714;28;8856;-85
2021/09/20 03:51:01;;;;;;;;;2.00;2.00;;;;;;;;5044502;28;8843;-84
2021/09/20 03:53:28;;;;;;;;;0.25;0.25;;;;;;;;5044727;28;9014;-86
2021/09/20 03:55:56;;;;;;;;;2.00;2.00;;;;;;;;5044451;28;8888;-87
2021/09/20 03:58:24;;;;;;;;;1.25;1.25;;;;;;;;5040321;28;8932;-86
2021/09/20 04:00:52;;;;;;;;;1.00;1.00;;;;;;;;5045299;28;8812;-82
2021/09/20 04:03:19;;;;;;;;;1.00;1.00;;;;;;;;5043588;28;8979;-84
2021/09/20 04:05:47;;;;;;;;;1.00;1.00;;;;;;;;5046403;28;8860;-84
2021/09/20 04:08:15;;;;;;;;;2.00;2.00;;;;;;;;5055066;28;8874;-89
2021/09/20 04:10:43;;;;;;;;;1.00;1.00;;;;;;;;5042646;28;8868;-90
2021/09/20 04:13:10;;;;;;;;;3.00;3.00;;;;;;;;5045395;28;9700;-94
2021/09/20 04:15:39;;;;;;;;;2.50;2.50;;;;;;;;5045199;28;8876;-88
2021/09/20 04:18:07;;;;;;;;;1.25;1.25;;;;;;;;5045320;28;8848;-81
2021/09/20 04:20:35;;;;;;;;;1.00;1.00;;;;;;;;5044266;28;8904;-82
2021/09/20 04:23:03;;;;;;;;;2.75;2.00;;;;;;;;5032634;28;8997;-83
2021/09/20 04:25:30;;;;;;;;;1.25;1.25;;;;;;;;5041780;28;8860;-90
2021/09/20 04:27:58;;;;;;;;;2.25;2.25;;;;;;;;5044833;28;8886;-87
2021/09/20 04:30:25;;;;;;;;;2.00;2.00;;;;;;;;5031953;28;8814;-93
2021/09/20 04:32:54;;;;;;;;;2.00;2.00;;;;;;;;5045409;28;8840;-89
2021/09/20 04:35:21;;;;;;;;;2.00;2.00;;;;;;;;5044086;28;8867;-89
2021/09/20 04:37:48;;;;;;;;;3.25;1.75;;;;;;;;5043740;28;8867;-85
2021/09/20 04:40:16;;;;;;;;;2.00;2.00;;;;;;;;5042583;28;8887;-83
2021/09/20 04:42:43;;;;;;;;;2.00;2.00;;;;;;;;5043194;28;9680;-87
2021/09/20 04:45:11;;;;;;;;;2.00;2.00;;;;;;;;5044345;28;8868;-90
2021/09/20 04:47:39;;;;;;;;;3.50;2.25;;;;;;;;5035656;28;8918;-87
2021/09/20 04:50:09;;;;;;;;;2.00;2.00;;;;;;;;5027508;28;9660;-81
2021/09/20 04:52:36;;;;;;;;;1.75;1.25;;;;;;;;5038891;28;8877;-87
2021/09/20 04:55:04;;;;;;;;;3.00;3.00;;;;;;;;5040558;28;8858;-91
2021/09/20 04:57:31;;;;;;;;;2.75;2.75;;;;;;;;5026336;28;8848;-85
2021/09/20 04:59:59;;;;;;;;;1.50;1.00;;;;;;;;5033730;28;9612;-88
2021/09/20 05:02:26;;;;;;;;;3.50;2.00;;;;;;;;5030014;28;8799;-83
2021/09/20 05:04:53;;;;;;;;;3.00;3.00;;;;;;;;5003770;28;9688;-83
2021/09/20 05:07:22;;;;;;;;;3.00;3.00;;;;;;;;5043108;28;9649;-87
2021/09/20 05:09:49;;;;;;;;;2.75;1.25;;;;;;;;5035231;28;8850;-85
2021/09/20 05:12:17;;;;;;;;;1.75;1.75;;;;;;;;5035893;28;9594;-91
2021/09/20 05:14:44;;;;;;;;;4.25;2.50;;;;;;;;5037380;28;8858;-85
2021/09/20 05:17:11;;;;;;;;;2.00;2.00;;;;;;;;5043947;28;8999;-91
2021/09/20 05:19:39;;;;;;;;;2.25;2.25;;;;;;;;5041960;28;8840;-80
2021/09/20 05:22:06;;;;;;;;;2.25;2.25;;;;;;;;5041885;28;8852;-80
2021/09/20 05:24:35;;;;;;;;;3.75;2.75;;;;;;;;5024414;28;8998;-78
2021/09/20 05:27:02;;;;;;;;;4.25;3.00;;;;;;;;5039958;28;8868;-79
2021/09/20 05:29:30;;;;;;;;;1.25;1.25;;;;;;;;5031336;28;8902;-81
2021/09/20 05:31:57;;;;;;;;;3.00;3.00;;;;;;;;5022501;28;8842;-77
2021/09/20 05:34:28;;;;;;;;;2.00;2.00;;;;;;;;5038141;28;8888;-77
2021/09/20 05:36:56;;;;;;;;;3.00;3.00;;;;;;;;5042694;28;8868;-75
2021/09/20 05:39:23;;;;;;;;;3.75;3.75;;;;;;;;5036969;28;8874;-73
2021/09/20 05:41:52;;;;;;;;;1.00;1.00;;;;;;;;5040492;28;8871;-73
2021/09/20 05:44:19;;;;;;;;;2.25;2.25;;;;;;;;5024955;28;8883;-73
2021/09/20 05:46:46;;;;;;;;;4.25;3.00;;;;;;;;5041204;28;8890;-73
2021/09/20 05:49:13;;;;;;;;;2.50;2.00;;;;;;;;5041607;28;8963;-72
2021/09/20 05:51:41;;;;;;;;;2.00;2.00;;;;;;;;5038459;28;8948;-73
2021/09/20 05:54:08;;;;;;;;;1.00;1.00;;;;;;;;5038014;28;8856;-73
2021/09/20 05:56:36;;;;;;;;;2.50;2.50;;;;;;;;5034484;28;9690;-73
2021/09/20 05:59:06;;;;;;;;;3.75;3.50;;;;;;;;5044166;28;8856;-75
2021/09/20 06:01:33;;;;;;;;;3.25;2.00;;;;;;;;5045331;28;8919;-73
2021/09/20 06:04:00;;;;;;;;;2.00;2.00;;;;;;;;5047095;28;9508;-74
2021/09/20 06:06:28;;;;;;;;;2.00;2.00;;;;;;;;5046055;28;8906;-74
2021/09/20 06:08:55;;;;;;;;;2.75;2.75;;;;;;;;5046387;28;9716;-74
2021/09/20 06:11:22;;;;;;;;;3.00;3.00;;;;;;;;5033753;28;9710;-73
2021/09/20 06:13:49;;;;;;;;;2.00;2.00;;;;;;;;5043611;28;8872;-74
2021/09/20 06:16:18;;;;;;;;;2.00;2.00;;;;;;;;5044447;28;8981;-73
2021/09/20 06:18:46;;;;;;;;;3.75;3.75;;;;;;;;5041414;28;8878;-72
2021/09/20 06:21:13;;;;;;;;;1.75;1.75;;;;;;;;5046669;28;8868;-73
2021/09/20 06:23:40;;;;;;;;;4.00;4.00;;;;;;;;5045257;28;8937;-73
2021/09/20 06:26:07;;;;;;;;;3.50;3.00;;;;;;;;5033006;28;8845;-73
2021/09/20 06:28:36;;;;;;;;;3.00;3.00;;;;;;;;5042025;28;8884;-73
2021/09/20 06:31:03;;;;;;;;;1.75;1.00;;;;;;;;5039954;28;8820;-73
2021/09/20 06:33:32;;;;;;;;;1.75;1.75;;;;;;;;5046608;28;8974;-73
2021/09/20 06:35:59;;;;;;;;;2.00;2.00;;;;;;;;5044737;28;8836;-74
2021/09/20 06:38:27;;;;;;;;;2.50;2.50;;;;;;;;5037989;28;8846;-73
2021/09/20 06:40:54;;;;;;;;;3.00;3.00;;;;;;;;5041865;28;8848;-73
2021/09/20 06:43:22;;;;;;;;;6.25;3.75;;;;;;;;5039795;28;8856;-73
2021/09/20 06:45:49;;;;;;;;;4.50;3.75;;;;;;;;5045627;28;8885;-73
2021/09/20 06:48:17;;;;;;;;;4.50;4.50;;;;;;;;5045202;28;8899;-73
2021/09/20 06:50:46;;;;;;;;;4.00;4.00;;;;;;;;5046138;28;8899;-73
2021/09/20 06:53:13;;;;;;;;;4.00;4.00;;;;;;;;5045190;28;8851;-74
2021/09/20 06:55:40;;;;;;;;;5.00;5.00;;;;;;;;5044179;28;8886;-73
2021/09/20 06:58:07;;;;;;;;;5.00;4.75;;;;;;;;5045273;28;8860;-73
2021/09/20 07:00:35;;;;;;;;;6.00;6.00;;;;;;;;5044521;28;8792;-73
2021/09/20 07:03:02;;;;;;;;;4.25;4.25;;;;;;;;5046095;28;9606;-73
2021/09/20 07:05:30;;;;;;;;;9.50;7.50;;;;;;;;5044215;28;8882;-73
2021/09/20 07:08:00;;;;;;;;;6.00;6.00;;;;;;;;5045422;28;8886;-74
2021/09/20 07:10:28;;;;;;;;;9.50;5.25;;;;;;;;5040972;28;8852;-74
2021/09/20 07:12:56;;;;;;;;;7.00;7.00;;;;;;;;5045110;28;8848;-73
2021/09/20 07:15:23;;;;;;;;;6.25;6.25;;;;;;;;5038849;28;8879;-72
2021/09/20 07:17:51;;;;;;;;;4.00;4.00;;;;;;;;5043960;28;8892;-73
2021/09/20 07:20:18;;;;;;;;;6.00;6.00;;;;;;;;5044765;28;9629;-73
2021/09/20 07:22:45;;;;;;;;;5.00;4.00;;;;;;;;5043022;28;8879;-73
2021/09/20 07:25:15;;;;;;;;;7.75;7.75;;;;;;;;5042398;28;8902;-72
2021/09/20 07:27:42;;;;;;;;;6.50;6.25;;;;;;;;5043655;28;8868;-73
2021/09/20 07:30:16;;;;;;;;;8.50;8.50;;;;;;;;5043529;28;8864;-74
2021/09/20 07:32:44;;;;;;;;;9.00;7.25;;;;;;;;5040782;28;8978;-75
2021/09/20 07:35:13;;;;;;;;;8.75;8.75;;;;;;;;5038027;28;8858;-73
2021/09/20 07:37:40;;;;;;;;;6.75;6.75;;;;;;;;5042155;28;8840;-73
2021/09/20 07:40:08;;;;;;;;;8.00;8.00;;;;;;;;5025466;28;8868;-74
2021/09/20 07:42:37;;;;;;;;;9.00;8.00;;;;;;;;5037902;28;8898;-74
2021/09/20 07:45:06;;;;;;;;;6.75;6.75;;;;;;;;5043012;28;8860;-74
2021/09/20 07:47:33;;;;;;;;;7.75;7.00;;;;;;;;5043155;28;8863;-74
2021/09/20 07:50:01;;;;;;;;;9.00;7.00;;;;;;;;5043618;28;8890;-73
2021/09/20 07:52:28;;;;;;;;;8.00;7.00;;;;;;;;5041799;28;8858;-73
2021/09/20 07:54:56;;;;;;;;;7.25;7.25;;;;;;;;5039865;28;8878;-73
2021/09/20 07:57:24;;;;;;;;;6.50;6.50;;;;;;;;5043737;28;8885;-73
2021/09/20 07:59:52;;;;;;;;;12.25;7.25;;;;;;;;5044131;28;8856;-73
2021/09/20 08:02:20;;;;;;;;;8.00;7.00;;;;;;;;5029428;28;9597;-73
2021/09/20 08:04:47;;;;;;;;;7.00;7.00;;;;;;;;5033186;28;8864;-74
2021/09/20 08:07:14;;;;;;;;;7.25;7.25;;;;;;;;5041028;28;9647;-73
2021/09/20 08:09:42;;;;;;;;;11.75;9.00;;;;;;;;5041434;28;8855;-73
2021/09/20 08:12:10;;;;;;;;;8.25;8.25;;;;;;;;5042929;28;8836;-72
2021/09/20 08:14:37;;;;;;;;;10.00;8.75;;;;;;;;5043405;28;8872;-73
2021/09/20 08:17:05;;;;;;;;;5.25;5.25;;;;;;;;5040548;28;9667;-73
2021/09/20 08:19:32;;;;;;;;;10.00;8.00;;;;;;;;5027320;28;8911;-74
2021/09/20 08:22:00;;;;;;;;;8.00;8.00;;;;;;;;5040581;28;9418;-74
2021/09/20 08:24:27;;;;;;;;;6.50;6.50;;;;;;;;5038587;28;8839;-73
2021/09/20 08:26:55;;;;;;;;;7.25;7.25;;;;;;;;5042309;28;9949;-74
2021/09/20 08:29:22;;;;;;;;;6.50;6.50;;;;;;;;5036807;28;8848;-73
2021/09/20 08:31:50;;;;;;;;;5.00;4.50;;;;;;;;5042101;28;8820;-74
2021/09/20 08:34:19;;;;;;;;;7.00;6.25;;;;;;;;5043273;28;8874;-74
2021/09/20 08:36:46;;;;;;;;;9.75;8.00;;;;;;;;5042512;28;8856;-73
2021/09/20 08:39:14;;;;;;;;;3.75;3.75;;;;;;;;5042634;28;8966;-75
2021/09/20 08:41:43;;;;;;;;;6.50;6.50;;;;;;;;5040145;28;8809;-74
2021/09/20 08:44:11;;;;;;;;;6.75;6.75;;;;;;;;5036343;28;8855;-75
2021/09/20 08:46:41;;;;;;;;;8.20;5.40;;;;;;;;5043250;28;8868;-75
2021/09/20 08:49:09;;;;;;;;;5.80;5.80;;;;;;;;5042274;28;9653;-76
2021/09/20 08:51:37;;;;;;;;;7.00;7.00;;;;;;;;5038360;28;8846;-76
2021/09/20 08:54:05;;;;;;;;;6.00;6.00;;;;;;;;5037934;28;9637;-75
2021/09/20 08:56:34;;;;;;;;;8.20;6.60;;;;;;;;5043053;28;9614;-76
2021/09/20 08:59:01;;;;;;;;;7.00;5.00;;;;;;;;5041916;28;8852;-74
2021/09/20 09:01:29;;;;;;;;;7.00;5.60;;;;;;;;5037201;28;8828;-75
2021/09/20 09:04:27;;;;;;;;;7.20;7.20;;;;;;;;5041573;28;8960;-75
2021/09/20 09:06:57;;;;;;;;;8.60;5.40;;;;;;;;5041730;28;8948;-75
2021/09/20 09:09:33;;;;;;;;;6.20;6.20;;;;;;;;5007594;28;8808;-77
2021/09/20 09:12:16;;;;;;;;;5.60;4.00;;;;;;;;5028534;28;8842;-74
2021/09/20 09:14:46;;;;;;;;;7.40;7.40;;;;;;;;5037781;28;9026;-76
2021/09/20 09:17:17;;;;;;;;;7.40;7.40;;;;;;;;5041546;28;9684;-75
2021/09/20 09:19:50;;;;;;;;;7.80;7.80;;;;;;;;5042564;28;8942;-74
2021/09/20 09:22:19;;;;;;;;;7.40;5.60;;;;;;;;5043781;28;9836;-75
2021/09/20 09:25:01;;;;;;;;;6.20;6.20;;;;;;;;5034201;28;8848;-75
2021/09/20 09:27:29;;;;;;;;;5.20;5.20;;;;;;;;5042112;28;8871;-75
2021/09/20 09:30:10;;;;;;;;;4.40;4.40;;;;;;;;5041021;28;8884;-74
2021/09/20 09:32:38;;;;;;;;;5.80;4.80;;;;;;;;5042144;28;8898;-74
2021/09/20 09:35:08;;;;;;;;;5.20;3.60;;;;;;;;5043384;28;8974;-75
2021/09/20 09:37:38;;;;;;;;;6.00;6.00;;;;;;;;5028869;28;8924;-74
2021/09/20 09:40:12;;;;;;;;;5.20;4.80;;;;;;;;5045386;28;8855;-76
2021/09/20 09:42:39;;;;;;;;;5.60;5.60;;;;;;;;5044787;28;8868;-75
2021/09/20 09:45:25;;;;;;;;;5.80;4.20;;;;;;;;5044770;28;8855;-75
2021/09/20 09:48:06;;;;;;;;;7.20;6.20;;;;;;;;5044531;28;8964;-75
2021/09/20 09:50:34;;;;;;;;;7.20;7.20;;;;;;;;5043052;28;8860;-76
2021/09/20 09:53:02;;;;;;;;;2.40;2.40;;;;;;;;5043542;28;8951;-76
2021/09/20 09:55:33;;;;;;;;;5.60;5.60;;;;;;;;5043055;28;9092;-75
2021/09/20 09:58:11;;;;;;;;;4.60;4.60;;;;;;;;5045776;28;8879;-76
2021/09/20 10:00:39;;;;;;;;;4.00;4.00;;;;;;;;5040971;28;8822;-75
2021/09/20 10:03:06;;;;;;;;;5.20;5.20;;;;;;;;5045597;28;8863;-75
2021/09/20 10:05:34;;;;;;;;;5.00;5.00;;;;;;;;5044318;28;9667;-75
2021/09/20 10:08:11;;;;;;;;;6.40;6.40;;;;;;;;5044211;28;8847;-74
2021/09/20 10:10:39;;;;;;;;;8.00;8.00;;;;;;;;5043737;28;8832;-75
2021/09/20 10:13:08;;;;;;;;;5.20;4.80;;;;;;;;5043279;28;8844;-75
2021/09/20 10:15:36;;;;;;;;;6.00;6.00;;;;;;;;5034832;28;8876;-75
2021/09/20 10:18:04;;;;;;;;;6.00;6.00;;;;;;;;5043005;28;8883;-75
2021/09/20 10:20:31;;;;;;;;;8.40;6.80;;;;;;;;5045072;28;8894;-75
2021/09/20 10:22:59;;;;;;;;;6.40;6.40;;;;;;;;5044699;28;8884;-75
2021/09/20 10:25:35;;;;;;;;;6.80;6.80;;;;;;;;5044195;28;8878;-75
2021/09/20 10:28:03;;;;;;;;;4.80;4.80;;;;;;;;5042885;28;8962;-75
2021/09/20 10:30:33;;;;;;;;;6.00;6.00;;;;;;;;5042412;28;8852;-76
2021/09/20 10:33:04;;;;;;;;;6.60;5.00;;;;;;;;5045612;28;8888;-75
2021/09/20 10:35:34;;;;;;;;;6.40;6.40;;;;;;;;5043544;28;8873;-75
2021/09/20 10:38:07;;;;;;;;;9.00;7.40;;;;;;;;5045094;28;8902;-75
2021/09/20 10:40:36;;;;;;;;;10.80;8.00;;;;;;;;5045005;28;8855;-76
2021/09/20 10:43:07;;;;;;;;;6.60;6.60;;;;;;;;5043991;28;8860;-77
2021/09/20 10:45:59;;;;;;;;;11.40;9.60;;;;;;;;5041651;28;10008;-77
2021/09/20 10:48:32;;;;;;;;;7.20;7.20;;;;;;;;5040572;28;8851;-75
2021/09/20 10:51:03;;;;;;;;;6.80;6.80;;;;;;;;5033173;28;8844;-77
2021/09/20 10:53:34;;;;;;;;;10.40;9.00;;;;;;;;5044711;28;8856;-76
2021/09/20 10:56:20;;;;;;;;;11.40;11.40;;;;;;;;5043334;28;9002;-75
2021/09/20 10:59:15;;;;;;;;;10.00;10.00;;;;;;;;5044386;28;8867;-75
2021/09/20 11:01:43;;;;;;;;;13.60;13.40;;;;;;;;5028566;28;8812;-75
2021/09/20 11:04:16;;;;;;;;;18.00;14.00;;;;;;;;5045065;28;8879;-75
2021/09/20 11:06:44;;;;;;;;;15.60;15.20;;;;;;;;5042978;28;8868;-75
2021/09/20 11:09:40;;;;;;;;;15.80;15.80;;;;;;;;5044045;28;8871;-74
2021/09/20 11:12:14;;;;;;;;;15.00;15.00;;;;;;;;4983224;28;8998;-75
2021/09/20 11:14:58;;;;;;;;;14.60;14.60;;;;;;;;5034163;28;8860;-76
2021/09/20 11:17:40;;;;;;;;;14.60;13.60;;;;;;;;5044887;28;9002;-77
2021/09/20 11:20:27;;;;;;;;;15.60;15.60;;;;;;;;5044577;28;8864;-75
2021/09/20 11:23:22;;;;;;;;;15.40;15.40;;;;;;;;5034035;28;8875;-73
2021/09/20 11:26:19;;;;;;;;;14.60;13.60;;;;;;;;5040053;28;8895;-74
2021/09/20 11:28:50;;;;;;;;;14.60;14.60;;;;;;;;5039340;28;8892;-76
2021/09/20 11:31:18;;;;;;;;;15.00;15.00;;;;;;;;5042807;28;8817;-75
2021/09/20 11:33:47;;;;;;;;;15.00;15.00;;;;;;;;5044380;28;8906;-74
2021/09/20 11:36:26;;;;;;;;;15.60;15.60;;;;;;;;5044046;28;8836;-75
2021/09/20 11:39:12;;;;;;;;;14.00;14.00;;;;;;;;5045590;28;8860;-75
2021/09/20 11:41:40;;;;;;;;;18.60;17.60;;;;;;;;5023157;28;8906;-75
2021/09/20 11:44:09;;;;;;;;;15.80;15.00;;;;;;;;5042297;28;8864;-75
2021/09/20 11:46:38;;;;;;;;;16.80;16.80;;;;;;;;5044319;28;9017;-75
2021/09/20 11:49:08;;;;;;;;;16.40;12.20;;;;;;;;5043217;28;8871;-75
2021/09/20 11:51:36;;;;;;;;;15.60;15.60;;;;;;;;5045634;28;8843;-75
2021/09/20 11:54:04;;;;;;;;;20.00;20.00;;;;;;;;5043828;28;8856;-74
2021/09/20 11:56:32;;;;;;;;;17.60;16.40;;;;;;;;5043428;28;8875;-75
2021/09/20 11:59:01;;;;;;;;;15.40;13.80;;;;;;;;5043691;28;8844;-75
2021/09/20 12:01:30;;;;;;;;;22.20;22.20;;;;;;;;5031482;28;8812;-75
2021/09/20 12:03:58;;;;;;;;;13.60;13.60;;;;;;;;5043666;28;8864;-75
2021/09/20 12:06:28;;;;;;;;;17.00;14.40;;;;;;;;5021464;28;8863;-75
2021/09/20 12:08:59;;;;;;;;;21.20;19.40;;;;;;;;5040244;28;8843;-76
2021/09/20 12:11:27;;;;;;;;;16.20;16.20;;;;;;;;5042437;28;8863;-74
2021/09/20 12:13:55;;;;;;;;;19.00;17.20;;;;;;;;5043849;28;8864;-74
2021/09/20 12:16:22;;;;;;;;;15.40;14.40;;;;;;;;5043812;28;8840;-75
2021/09/20 12:18:51;;;;;;;;;18.60;18.60;;;;;;;;5042479;28;8870;-75
2021/09/20 12:21:19;;;;;;;;;20.80;17.80;;;;;;;;5042735;28;8855;-74
2021/09/20 12:23:49;;;;;;;;;20.20;20.20;;;;;;;;5043219;28;8872;-74
2021/09/20 12:26:19;;;;;;;;;20.20;20.20;;;;;;;;5043716;28;8856;-74
2021/09/20 12:28:53;;;;;;;;;21.80;20.60;;;;;;;;5039268;28;8880;-74
2021/09/20 12:31:23;;;;;;;;;19.20;19.20;;;;;;;;5025041;28;8835;-74
2021/09/20 12:33:55;;;;;;;;;18.40;17.20;;;;;;;;5043248;28;8978;-74
2021/09/20 12:36:26;;;;;;;;;20.20;19.20;;;;;;;;5041292;28;8874;-74
2021/09/20 12:39:05;;;;;;;;;24.20;22.60;;;;;;;;5026242;28;8903;-74
2021/09/20 12:41:35;;;;;;;;;16.00;16.00;;;;;;;;5043026;28;8852;-74
2021/09/20 12:44:03;;;;;;;;;17.20;16.40;;;;;;;;5043707;28;8932;-74
2021/09/20 12:46:32;;;;;;;;;15.00;14.20;;;;;;;;5043059;28;8828;-74
2021/09/20 12:49:02;;;;;;;;;21.60;21.60;;;;;;;;5042986;28;8868;-74
2021/09/20 12:51:35;;;;;;;;;23.80;19.60;;;;;;;;5045263;28;8852;-73
2021/09/20 12:54:02;;;;;;;;;16.80;16.80;;;;;;;;5042815;28;8880;-74
2021/09/20 12:56:32;;;;;;;;;20.80;19.20;;;;;;;;5041109;28;8867;-74
2021/09/20 12:59:18;;;;;;;;;22.00;17.00;;;;;;;;5025223;28;8990;-74
2021/09/20 13:01:52;;;;;;;;;23.40;20.00;;;;;;;;5025788;28;8812;-74
2021/09/20 13:04:45;;;;;;;;;21.80;17.20;;;;;;;;5041807;28;8962;-74
2021/09/20 13:07:15;;;;;;;;;15.20;15.20;;;;;;;;5023443;28;9018;-74
2021/09/20 13:09:51;;;;;;;;;16.80;15.80;;;;;;;;5050462;28;8878;-74
2021/09/20 13:12:18;;;;;;;;;22.00;19.40;;;;;;;;5048477;28;9463;-74
2021/09/20 13:14:52;;;;;;;;;19.60;19.60;;;;;;;;5048689;28;8990;-74
2021/09/20 13:17:30;;;;;;;;;19.40;19.40;;;;;;;;5042798;28;8828;-74
2021/09/20 13:20:06;;;;;;;;;16.40;16.40;;;;;;;;5047166;28;8883;-74
2021/09/20 13:22:45;;;;;;;;;17.60;15.80;;;;;;;;5050726;28;8875;-74
2021/09/20 13:25:21;;;;;;;;;19.80;19.80;;;;;;;;5049585;28;8856;-74
2021/09/20 13:27:49;;;;;;;;;21.40;19.80;;;;;;;;5045256;28;8868;-74
2021/09/20 13:30:18;;;;;;;;;15.20;15.20;;;;;;;;5048914;28;8888;-74
2021/09/20 13:32:46;;;;;;;;;20.40;20.40;;;;;;;;5049115;28;8870;-74
2021/09/20 13:35:22;;;;;;;;;18.40;17.60;;;;;;;;5043092;28;8959;-74
2021/09/20 13:37:50;;;;;;;;;16.20;15.60;;;;;;;;5038728;28;8871;-74
2021/09/20 13:40:17;;;;;;;;;17.00;17.00;;;;;;;;5049967;28;8887;-74
2021/09/20 13:42:44;;;;;;;;;13.80;13.80;;;;;;;;5047726;28;8863;-74
2021/09/20 13:45:12;;;;;;;;;15.00;14.00;;;;;;;;5045090;28;8872;-74
2021/09/20 13:47:39;;;;;;;;;17.00;17.00;;;;;;;;5048501;28;8888;-74
2021/09/20 13:50:08;;;;;;;;;14.60;14.20;;;;;;;;5048840;28;8863;-75
2021/09/20 13:52:38;;;;;;;;;13.20;13.20;;;;;;;;5048915;28;8892;-75
2021/09/20 13:55:07;;;;;;;;;15.80;15.80;;;;;;;;5046644;28;8875;-75
2021/09/20 13:57:34;;;;;;;;;15.80;15.80;;;;;;;;5046063;28;8915;-74
2021/09/20 14:00:01;;;;;;;;;13.80;12.40;;;;;;;;5047967;28;8848;-74
2021/09/20 14:02:29;;;;;;;;;21.00;19.20;;;;;;;;5046911;28;8800;-74
2021/09/20 14:04:56;;;;;;;;;12.20;12.20;;;;;;;;5048044;28;8890;-74
2021/09/20 14:07:24;;;;;;;;;12.60;11.60;;;;;;;;5047079;28;8974;-74
2021/09/20 14:09:53;;;;;;;;;7.80;7.80;;;;;;;;5044189;28;8834;-74
2021/09/20 14:12:20;;;;;;;;;14.20;14.20;;;;;;;;5046862;28;8913;-74
2021/09/20 14:14:47;;;;;;;;;12.40;12.40;;;;;;;;5042510;28;8866;-74
2021/09/20 14:17:15;;;;;;;;;10.20;10.20;;;;;;;;5048298;28;8864;-74
2021/09/20 14:19:42;;;;;;;;;13.60;13.60;;;;;;;;5046586;28;9649;-74
2021/09/20 14:22:11;;;;;;;;;10.40;10.40;;;;;;;;5045536;28;8874;-74
2021/09/20 14:24:39;;;;;;;;;11.40;11.20;;;;;;;;5028220;28;8860;-74
2021/09/20 14:27:08;;;;;;;;;13.80;13.80;;;;;;;;5027742;28;8870;-74
2021/09/20 14:29:35;;;;;;;;;14.20;12.60;;;;;;;;5043402;28;8859;-74
2021/09/20 14:32:03;;;;;;;;;15.00;13.00;;;;;;;;5044423;28;8809;-73
2021/09/20 14:34:30;;;;;;;;;17.40;15.00;;;;;;;;5044446;28;8880;-75
2021/09/20 14:36:58;;;;;;;;;15.60;13.40;;;;;;;;5044435;28;8973;-75
2021/09/20 14:39:25;;;;;;;;;16.40;16.40;;;;;;;;5027589;28;8851;-75
2021/09/20 14:41:53;;;;;;;;;17.00;14.60;;;;;;;;5045925;28;8872;-75
2021/09/20 14:44:21;;;;;;;;;12.40;12.40;;;;;;;;5040772;28;8835;-75
2021/09/20 14:46:48;;;;;;;;;14.80;13.80;;;;;;;;5044837;28;8882;-74
2021/09/20 14:49:16;;;;;;;;;14.80;14.20;;;;;;;;5040587;28;8848;-75
2021/09/20 14:51:43;;;;;;;;;13.00;13.00;;;;;;;;5044710;28;8863;-75
2021/09/20 14:54:10;;;;;;;;;14.60;13.20;;;;;;;;5045665;28;8880;-75
2021/09/20 14:56:38;;;;;;;;;14.20;13.80;;;;;;;;5044208;28;8868;-75
2021/09/20 14:59:06;;;;;;;;;15.60;12.80;;;;;;;;5044407;28;9589;-75
2021/09/20 15:01:36;;;;;;;;;13.00;12.80;;;;;;;;5045034;28;8823;-74